Time;durP1;ratioP1;P1;durP2;ratioP2;P2;SDS_P1;SDS_P2;PMS_P1;PMS_P2;Temp;Humidity;BMP_temperature;BMP_pressure;BME280_temperature;BME280_humidity;BME280_pressure;Samples;Min_cycle;Max_cycle;Signal;HPM_P1;HPM_P2
2022/01/22 00:00:35;;;;;;;13.45;3.45;;;;;;;;;;5127617;28;20261;-31
2022/01/22 00:03:08;;;;;;;7.55;3.35;;;;;;;;;;5146826;28;20061;-30
2022/01/22 00:05:41;;;;;;;15.23;4.00;;;;;;;;;;5158459;23;20179;-39
2022/01/22 00:08:15;;;;;;;11.75;3.35;;;;;;;;;;5135649;28;20502;-39
2022/01/22 00:10:50;;;;;;;12.10;3.53;;;;;;;;;;5139188;28;20118;-42
2022/01/22 00:16:16;;;;;;;5.78;3.00;;;;;;;;;;5114850;28;20074;-39
2022/01/22 00:18:49;;;;;;;6.95;3.30;;;;;;;;;;5118676;28;20073;-39
2022/01/22 00:21:22;;;;;;;8.95;3.13;;;;;;;;;;5121978;28;20042;-38
2022/01/22 00:23:57;;;;;;;9.52;3.70;;;;;;;;;;5125800;28;20058;-38
2022/01/22 00:26:30;;;;;;;10.05;3.40;;;;;;;;;;5126868;28;20054;-41
2022/01/22 00:29:03;;;;;;;7.27;3.60;;;;;;;;;;5126028;28;20415;-39
2022/01/22 00:31:36;;;;;;;12.57;3.78;;;;;;;;;;5138325;28;20404;-38
2022/01/22 00:34:09;;;;;;;14.00;4.30;;;;;;;;;;5122410;28;20042;-37
2022/01/22 00:36:42;;;;;;;7.13;3.25;;;;;;;;;;5119174;28;20990;-39
2022/01/22 00:39:14;;;;;;;11.23;4.23;;;;;;;;;;5113222;28;20809;-37
2022/01/22 00:41:47;;;;;;;11.88;4.38;;;;;;;;;;5118434;28;20043;-41
2022/01/22 00:44:20;;;;;;;5.80;3.70;;;;;;;;;;5120979;28;21253;-39
2022/01/22 00:46:53;;;;;;;10.70;3.53;;;;;;;;;;5134882;28;20058;-37
2022/01/22 00:49:25;;;;;;;11.50;3.47;;;;;;;;;;5133966;28;20396;-36
2022/01/22 00:51:59;;;;;;;11.88;3.05;;;;;;;;;;5122180;28;20050;-37
2022/01/22 00:54:32;;;;;;;8.50;3.63;;;;;;;;;;5121080;28;20054;-36
2022/01/22 00:57:05;;;;;;;10.18;3.92;;;;;;;;;;5133971;28;20050;-39
2022/01/22 00:59:38;;;;;;;8.53;3.77;;;;;;;;;;5132362;28;20038;-37
2022/01/22 01:02:11;;;;;;;6.10;3.33;;;;;;;;;;5108071;28;20055;-37
2022/01/22 01:04:44;;;;;;;9.67;3.30;;;;;;;;;;5134377;28;20039;-37
2022/01/22 01:07:17;;;;;;;13.43;4.15;;;;;;;;;;5119066;28;20526;-37
2022/01/22 01:09:49;;;;;;;7.95;3.80;;;;;;;;;;5129782;28;20047;-36
2022/01/22 01:12:23;;;;;;;10.77;3.47;;;;;;;;;;5132689;28;20062;-37
2022/01/22 01:34:40;;;;;;;9.73;3.50;;;;;;;;;;5135116;28;20042;-38
2022/01/22 01:37:15;;;;;;;8.70;3.42;;;;;;;;;;5118868;28;20054;-36
2022/01/22 01:39:52;;;;;;;6.82;3.28;;;;;;;;;;5114458;28;20050;-37
2022/01/22 01:42:37;;;;;;;10.02;4.40;;;;;;;;;;5119235;28;20043;-37
2022/01/22 01:45:10;;;;;;;8.63;3.38;;;;;;;;;;5116123;28;20055;-37
2022/01/22 01:48:03;;;;;;;7.07;3.22;;;1.50;99.90;;;;;;5109607;28;20446;-37
2022/01/22 01:50:39;;;;;;;8.57;3.33;;;;;;;;;;5109615;28;20644;-39
2022/01/22 01:53:27;;;;;;;6.13;3.38;;;;;;;;;;5090557;28;20042;-37
2022/01/22 01:57:23;;;;;;;11.77;3.20;;;;;;;;;;5130822;28;20055;-37
2022/01/22 01:58:55;;;;;;;10.32;2.67;;;;;;;;;;5107732;28;20047;-37
2022/01/22 02:01:28;;;;;;;6.65;3.20;;;;;;;;;;5109035;28;20428;-37
2022/01/22 02:04:01;;;;;;;4.77;2.93;;;;;;;;;;5118887;28;20058;-37
2022/01/22 02:06:34;;;;;;;;;;;1.60;99.90;;;;;;5110833;28;20321;-38
2022/01/22 02:09:09;;;;;;;5.25;2.90;;;;;;;;;;5096415;28;19933;-38
2022/01/22 02:11:44;;;;;;;6.75;2.90;;;;;;;;;;5104423;28;20047;-37
2022/01/22 02:23:39;;;;;;;12.85;4.32;;;;;;;;;;5116845;28;20051;-37
2022/01/22 02:26:14;;;;;;;5.95;2.92;;;1.60;99.90;;;;;;5106604;28;20537;-37
2022/01/22 02:28:52;;;;;;;6.15;2.92;;;;;;;;;;5106680;28;20419;-38
2022/01/22 02:31:40;;;;;;;6.28;2.42;;;;;;;;;;5104272;28;20058;-37
2022/01/22 02:36:59;;;;;;;6.30;2.87;;;;;;;;;;5100090;28;20049;-37
2022/01/22 02:40:02;;;;;;;5.72;2.30;;;;;;;;;;5109782;28;20517;-38
2022/01/22 02:42:34;;;;;;;6.43;2.35;;;;;;;;;;5109973;28;20407;-37
2022/01/22 02:45:10;;;;;;;3.58;2.42;;;;;;;;;;5096988;28;20055;-40
2022/01/22 02:47:44;;;;;;;6.13;2.65;;;;;;;;;;5105110;28;20249;-36
2022/01/22 02:50:18;;;;;;;;;;;1.70;99.90;;;;;;5111037;28;20058;-38
2022/01/22 02:52:50;;;;;;;6.30;2.33;;;;;;;;;;5119544;28;19922;-37
2022/01/22 02:55:23;;;;;;;8.15;2.70;;;;;;;;;;5110978;28;20066;-37
2022/01/22 02:57:59;;;;;;;6.53;2.92;;;;;;;;;;5132382;28;20043;-37
2022/01/22 03:00:33;;;;;;;5.38;2.65;;;1.70;99.90;;;;;;5113124;28;20039;-37
2022/01/22 03:03:07;;;;;;;5.65;2.50;;;;;;;;;;5113678;28;20390;-36
2022/01/22 03:05:40;;;;;;;7.15;2.42;;;;;;;;;;5110617;28;20059;-43
2022/01/22 03:08:14;;;;;;;4.63;2.80;;;;;;;;;;5099904;28;20058;-37
2022/01/22 03:10:51;;;;;;;6.15;3.45;;;;;;;;;;5105299;28;20562;-38
2022/01/22 03:16:59;;;;;;;8.70;2.70;;;;;;;;;;5103192;28;20043;-37
2022/01/22 03:19:58;;;;;;;6.53;2.63;;;;;;;;;;5113052;28;20042;-38
2022/01/22 03:28:01;;;;;;;6.60;2.58;;;;;;;;;;5115295;28;20055;-39
2022/01/22 03:30:35;;;;;;;7.88;2.95;;;;;;;;;;5109456;28;20443;-37
2022/01/22 03:33:08;;;;;;;4.37;2.87;;;;;;;;;;5098160;28;20062;-38
2022/01/22 03:35:45;;;;;;;3.72;2.58;;;;;;;;;;5110979;28;20422;-37
2022/01/22 03:38:18;;;;;;;5.10;2.50;;;;;;;;;;5114797;28;20120;-39
2022/01/22 03:40:51;;;;;;;3.83;2.25;;;;;;;;;;5106056;28;21045;-36
2022/01/22 03:43:24;;;;;;;5.50;2.65;;;;;;;;;;5108687;28;20057;-37
2022/01/22 03:45:58;;;;;;;7.30;2.80;;;;;;;;;;5105949;28;20051;-36
2022/01/22 03:48:31;;;;;;;7.77;3.03;;;;;;;;;;5110745;28;20491;-40
2022/01/22 03:51:04;;;;;;;6.40;2.88;;;;;;;;;;5104863;28;20061;-38
2022/01/22 03:53:37;;;;;;;4.40;2.50;;;;;;;;;;5111718;28;20158;-37
2022/01/22 03:56:11;;;;;;;8.77;2.70;;;;;;;;;;5112342;28;20047;-37
2022/01/22 03:59:09;;;;;;;5.47;2.38;;;;;;;;;;5116976;28;20057;-38
2022/01/22 04:02:08;;;;;;;4.45;2.85;;;1.60;99.90;;;;;;5111669;28;20047;-39
2022/01/22 04:04:52;;;;;;;9.63;2.90;;;;;;;;;;5110062;28;20043;-36
2022/01/22 04:10:00;;;;;;;7.72;3.38;;;;;;;;;;5113492;28;20054;-39
2022/01/22 04:12:51;;;;;;;14.07;5.80;;;;;;;;;;5108744;28;21241;-39
2022/01/22 04:15:27;;;;;;;9.63;3.28;;;;;;;;;;5115643;28;20498;-36
2022/01/22 04:29:07;;;;;;;5.38;2.97;;;;;;;;;;5117629;28;20043;-38
2022/01/22 04:31:40;;;;;;;8.43;3.55;;;;;;;;;;5113267;28;20069;-37
2022/01/22 04:34:13;;;;;;;4.70;3.03;;;;;;;;;;5111762;28;20047;-37
2022/01/22 04:36:46;;;;;;;7.60;3.20;;;;;;;;;;5129334;28;20657;-37
2022/01/22 04:39:21;;;;;;;6.35;3.10;;;;;;;;;;5116334;28;20050;-37
2022/01/22 04:41:56;;;;;;;7.38;2.78;;;;;;;;;;5117270;28;20050;-37
2022/01/22 04:44:34;;;;;;;6.97;2.92;;;1.50;99.90;;;;;;5111777;28;20138;-36
2022/01/22 04:52:44;;;;;;;7.70;3.17;;;;;;;;;;5112941;28;21536;-40
2022/01/22 04:55:21;;;;;;;6.43;2.75;;;;;;;;;;5120399;28;20142;-37
2022/01/22 04:57:54;;;;;;;4.78;3.38;;;;;;;;;;5115112;28;20051;-38
2022/01/22 05:00:27;;;;;;;5.83;2.83;;;;;;;;;;5115720;28;20058;-37
2022/01/22 05:03:20;;;;;;;5.53;3.08;;;;;;;;;;5111211;28;20791;-37
2022/01/22 05:06:06;;;;;;;7.60;2.95;;;;;;;;;;5130855;28;20503;-37
2022/01/22 05:08:56;;;;;;;7.57;3.05;;;;;;;;;;5116222;28;20323;-39
2022/01/22 05:11:36;;;;;;;6.95;2.95;;;;;;;;;;5107923;28;20401;-37
2022/01/22 05:14:09;;;;;;;4.93;3.03;;;;;;;;;;5108797;28;20078;-37
2022/01/22 05:16:42;;;;;;;6.93;3.65;;;;;;;;;;5119494;28;20053;-37
2022/01/22 05:20:07;;;;;;;6.43;2.78;;;;;;;;;;5100506;28;20105;-36
2022/01/22 05:24:56;;;;;;;9.10;3.47;;;;;;;;;;5118609;28;20050;-37
2022/01/22 05:39:11;;;;;;;9.70;4.18;;;1.50;99.90;;;;;;5113199;28;20057;-36
2022/01/22 05:41:43;;;;;;;14.00;5.50;;;;;;;;;;5117637;28;20051;-36
2022/01/22 05:44:16;;;;;;;6.47;4.00;;;;;;;;;;5115878;28;20057;-37
2022/01/22 05:46:51;;;;;;;16.42;5.45;;;;;;;;;;5108673;28;20518;-37
2022/01/22 05:49:26;;;;;;;8.13;4.20;;;;;;;;;;5106393;28;20581;-36
2022/01/22 05:52:01;;;;;;;8.05;4.13;;;;;;;;;;5131130;28;20050;-37
2022/01/22 05:54:53;;;;;;;10.15;4.38;;;;;;;;;;5127525;28;20406;-37
2022/01/22 06:00:43;;;;;;;7.82;4.72;;;;;;;;;;5116750;28;20513;-36
2022/01/22 06:03:26;;;;;;;12.73;4.70;;;;;;;;;;5105586;28;20916;-37
2022/01/22 06:06:01;;;;;;;11.55;5.22;;;;;;;;;;5140455;23;20057;-83
2022/01/22 06:08:40;;;;;;;12.38;4.88;;;;;;;;;;5114877;28;20061;-83
2022/01/22 06:11:21;;;;;;;7.47;4.95;;;;;;;;;;5136956;28;20498;-83
2022/01/22 06:13:54;;;;;;;12.43;6.32;;;;;;;;;;5110526;28;20800;-83
2022/01/22 06:16:38;;;;;;;9.18;5.47;;;;;;;;;;5123117;28;20422;-84
2022/01/22 06:19:31;;;;;;;9.80;4.90;;;;;;;;;;5131862;28;20050;-83
2022/01/22 06:22:04;;;;;;;11.43;5.38;;;;;;;;;;5126683;28;20054;-84
2022/01/22 06:24:38;;;;;;;9.30;5.65;;;;;;;;;;5125880;28;20046;-83
2022/01/22 06:27:14;;;;;;;8.10;5.25;;;;;;;;;;5103118;28;20788;-83
2022/01/22 06:29:48;;;;;;;12.10;5.50;;;;;;;;;;5096259;28;20054;-83
2022/01/22 06:32:22;;;;;;;8.98;5.35;;;;;;;;;;5098752;28;20394;-83
2022/01/22 06:34:56;;;;;;;10.50;5.30;;;;;;;;;;5114910;28;20393;-83
2022/01/22 06:37:29;;;;;;;13.38;4.82;;;;;;;;;;5134877;28;20053;-83
2022/01/22 06:43:18;;;;;;;10.30;5.80;;;;;;;;;;5092573;28;20058;-83
2022/01/22 06:46:20;;;;;;;11.05;5.32;;;;;;;;;;5104516;28;20053;-85
2022/01/22 06:49:10;;;;;;;9.57;5.50;;;;;;;;;;5121271;28;20142;-84
2022/01/22 06:52:03;;;;;;;11.05;5.85;;;;;;;;;;5108466;28;20054;-84
2022/01/22 06:54:36;;;;;;;11.52;5.60;;;;;;;;;;5143675;28;20883;-84
2022/01/22 06:57:09;;;;;;;13.75;6.28;;;;;;;;;;5130155;28;20050;-83
2022/01/22 06:59:43;;;;;;;11.43;7.00;;;;;;;;;;5128720;28;20046;-85
2022/01/22 07:02:24;;;;;;;14.57;6.90;;;;;;;;;;5125710;28;20054;-85
2022/01/22 07:05:01;;;;;;;13.98;6.55;;;;;;;;;;5094036;28;20050;-83
2022/01/22 07:07:48;;;;;;;14.38;6.80;;;;;;;;;;5123234;28;20057;-85
2022/01/22 07:10:23;;;;;;;13.02;6.60;;;;;;;;;;5111796;28;20387;-85
2022/01/22 07:12:56;;;;;;;16.05;6.65;;;;;;;;;;5143094;28;20047;-84
2022/01/22 07:15:28;;;;;;;16.03;6.67;;;;;;;;;;5101035;28;20050;-85
2022/01/22 07:18:12;;;;;;;13.45;5.85;;;;;;;;;;5130164;28;20392;-84
2022/01/22 07:20:50;;;;;;;12.77;6.57;;;;;;;;;;5119955;28;20051;-86
2022/01/22 07:26:12;;;;;;;11.65;6.70;;;;;;;;;;5112946;28;20061;-86
2022/01/22 07:29:26;;;;;;;12.95;7.15;;;1.70;99.90;;;;;;5110046;28;20062;-84
2022/01/22 07:32:11;;;;;;;13.27;6.88;;;;;;;;;;5109982;28;20454;-85
2022/01/22 07:34:45;;;;;;;14.05;6.80;;;;;;;;;;5113564;28;20057;-84
2022/01/22 07:37:25;;;;;;;15.65;8.32;;;;;;;;;;5131851;28;22741;-85
2022/01/22 07:40:05;;;;;;;13.13;7.75;;;;;;;;;;5107189;28;20061;-83
2022/01/22 07:42:54;;;;;;;12.82;7.20;;;;;;;;;;5103299;28;20600;-84
2022/01/22 07:45:47;;;;;;;15.43;7.10;;;;;;;;;;5127227;28;20053;-85
2022/01/22 07:48:24;;;;;;;13.05;7.13;;;;;;;;;;5094422;28;20042;-84
2022/01/22 07:51:20;;;;;;;12.48;7.22;;;;;;;;;;5123440;28;20074;-85
2022/01/22 07:53:56;;;;;;;13.00;6.95;;;;;;;;;;5108476;28;20053;-84
2022/01/22 07:56:34;;;;;;;15.05;7.80;;;;;;;;;;5107024;28;20689;-84
2022/01/22 07:59:18;;;;;;;18.20;8.77;;;;;;;;;;4780968;28;10000522;-85
2022/01/22 08:01:56;;;;;;;17.05;8.55;;;;;;;;;;5139870;28;20058;-84
2022/01/22 08:04:29;;;;;;;16.58;9.32;;;;;;;;;;5121481;28;20057;-84
2022/01/22 08:07:38;;;;;;;;;;;;;;;;;;;;;
2022/01/22 08:10:31;;;;;;;15.45;8.00;;;1.50;99.90;;;;;;5139798;28;20053;-85
2022/01/22 08:13:46;;;;;;;15.90;9.02;;;;;;;;;;5147769;28;20046;-85
2022/01/22 08:16:22;;;;;;;13.60;7.93;;;;;;;;;;5125958;28;20046;-85
2022/01/22 08:19:46;;;;;;;15.65;7.55;;;;;;;;;;5141713;28;20056;-85
2022/01/22 08:23:32;;;;;;;18.60;9.00;;;;;;;;;;5126374;28;20065;-85
2022/01/22 08:26:54;;;;;;;15.82;8.85;;;;;;;;;;5142399;28;20557;-85
2022/01/22 08:29:32;;;;;;;16.58;9.27;;;;;;;;;;5105373;28;20057;-85
2022/01/22 08:38:22;;;;;;;;;;;1.60;99.90;;;;;;5130921;28;20603;-84
2022/01/22 08:41:00;;;;;;;15.40;7.50;;;;;;;;;;5133421;28;19925;-84
2022/01/22 08:43:36;;;;;;;18.42;8.43;;;;;;;;;;5136230;28;20061;-83
2022/01/22 08:46:10;;;;;;;15.02;8.38;;;;;;;;;;5131738;28;20054;-86
2022/01/22 08:48:43;;;;;;;13.73;7.95;;;;;;;;;;5108916;28;20049;-83
2022/01/22 08:51:16;;;;;;;15.75;8.40;;;;;;;;;;5151592;28;20054;-84
2022/01/22 08:53:52;;;;;;;15.45;8.63;;;;;;;;;;5162498;28;20049;-83
2022/01/22 08:56:25;;;;;;;15.23;9.45;;;;;;;;;;5121234;28;20398;-83
2022/01/22 08:58:59;;;;;;;13.48;8.00;;;;;;;;;;5114385;28;20050;-84
2022/01/22 09:01:42;;;;;;;16.73;9.70;;;1.70;99.90;;;;;;5109663;28;20049;-84
2022/01/22 09:04:25;;;;;;;19.25;9.10;;;;;;;;;;5119766;28;20414;-83
2022/01/22 09:07:20;;;;;;;18.35;9.13;;;;;;;;;;5148526;28;20053;-84
2022/01/22 09:09:53;;;;;;;18.45;10.02;;;;;;;;;;5157363;28;20069;-85
2022/01/22 09:12:35;;;;;;;17.38;9.75;;;;;;;;;;5147250;28;20046;-85
2022/01/22 09:15:18;;;;;;;17.58;8.85;;;;;;;;;;5150074;28;20375;-84
2022/01/22 09:17:52;;;;;;;15.90;9.13;;;;;;;;;;5129651;28;20046;-84
2022/01/22 09:23:12;;;;;;;21.30;9.77;;;;;;;;;;5133525;28;20045;-84
2022/01/22 09:25:46;;;;;;;17.58;10.50;;;1.80;99.90;;;;;;5119171;28;20064;-84
2022/01/22 09:28:19;;;;;;;16.83;10.32;;;;;;;;;;5144504;28;20116;-84
2022/01/22 09:31:05;;;;;;;18.88;10.02;;;;;;;;;;5123569;28;20050;-85
2022/01/22 09:33:43;;;;;;;16.42;10.13;;;;;;;;;;5141076;28;20405;-86
2022/01/22 09:36:45;;;;;;;20.90;10.98;;;;;;;;;;5128864;28;20049;-85
2022/01/22 09:39:46;;;;;;;16.58;9.30;;;;;;;;;;5100400;28;20061;-83
2022/01/22 09:42:51;;;;;;;17.30;10.27;;;;;;;;;;5112519;28;20050;-83
2022/01/22 09:45:59;;;;;;;16.00;9.70;;;;;;;;;;5118885;28;20058;-84
2022/01/22 09:48:50;;;;;;;18.63;9.93;;;1.90;99.90;;;;;;5130201;28;20045;-83
2022/01/22 09:51:59;;;;;;;18.63;9.10;;;;;;;;;;5122920;28;20034;-84
2022/01/22 09:54:51;;;;;;;18.75;10.10;;;;;;;;;;5134575;28;20045;-83
2022/01/22 09:57:56;;;;;;;18.75;9.63;;;;;;;;;;5091389;28;20089;-84
2022/01/22 10:01:27;;;;;;;16.77;9.32;;;1.90;99.90;;;;;;5085137;28;20038;-83
2022/01/22 10:09:25;;;;;;;18.70;9.35;;;1.80;99.90;;;;;;5059452;28;20046;-83
2022/01/22 10:12:52;;;;;;;21.52;10.05;;;1.80;99.90;;;;;;5065195;28;20057;-83
2022/01/22 10:16:13;;;;;;;16.73;9.80;;;1.60;99.90;;;;;;5113662;28;20046;-83
2022/01/22 10:19:17;;;;;;;18.17;10.15;;;2.00;99.90;;;;;;5100033;28;20529;-83
2022/01/22 10:22:04;;;;;;;21.38;9.77;;;;;;;;;;5065962;28;20042;-83
2022/01/22 10:24:44;;;;;;;20.73;9.77;;;;;;;;;;5093711;28;20046;-85
2022/01/22 10:27:36;;;;;;;16.85;10.75;;;;;;;;;;5096192;28;20046;-84
2022/01/22 10:30:37;;;;;;;19.77;10.02;;;;;;;;;;5080405;28;21085;-83
2022/01/22 10:36:59;;;;;;;20.80;10.10;;;2.10;99.90;;;;;;5140038;28;20053;-84
2022/01/22 10:40:19;;;;;;;20.73;10.25;;;2.10;99.90;;;;;;5091811;28;20049;-83
2022/01/22 10:43:31;;;;;;;17.30;9.27;;;2.10;99.90;;;;;;5082223;28;21826;-83
2022/01/22 10:46:18;;;;;;;17.17;8.45;;;;;;;;;;5104130;28;20060;-84
2022/01/22 10:49:07;;;;;;;18.30;10.23;;;2.10;99.90;;;;;;4772261;28;10000486;-84
2022/01/22 10:51:48;;;;;;;16.40;9.38;;;2.10;99.90;;;;;;5124100;28;20729;-83
2022/01/22 10:54:24;;;;;;;19.08;9.40;;;2.10;99.90;;;;;;5135137;28;20064;-83
2022/01/22 10:57:19;;;;;;;19.00;10.32;;;2.20;99.90;;;;;;5107614;28;20053;-83
2022/01/22 10:59:56;;;;;;;16.83;9.45;;;2.10;99.90;;;;;;5131607;28;20038;-83
2022/01/22 11:02:38;;;;;;;19.70;9.98;;;2.20;99.90;;;;;;5154258;28;20046;-84
2022/01/22 11:05:38;;;;;;;15.48;9.43;;;2.20;99.90;;;;;;5125718;28;20053;-84
2022/01/22 11:08:16;;;;;;;16.27;9.27;;;2.30;99.90;;;;;;5148272;28;20049;-83
2022/01/22 11:10:49;;;;;;;17.02;8.77;;;;;;;;;;5125986;28;20505;-82
2022/01/22 11:13:26;;;;;;;18.25;9.07;;;;;;;;;;5111793;28;20057;-83
2022/01/22 11:16:01;;;;;;;20.17;8.93;;;;;;;;;;5146175;28;20068;-84
2022/01/22 11:18:55;;;;;;;17.20;9.50;;;2.20;99.90;;;;;;5138304;28;20056;-84
2022/01/22 11:21:30;;;;;;;16.10;8.75;;;2.20;99.90;;;;;;5143514;28;20045;-84
2022/01/22 11:24:06;;;;;;;15.88;8.73;;;;;;;;;;5123745;28;20511;-84
2022/01/22 11:26:44;;;;;;;18.85;8.70;;;2.20;99.90;;;;;;5113438;28;20808;-85
2022/01/22 11:29:20;;;;;;;14.95;8.23;;;2.20;99.90;;;;;;5135744;28;20828;-83
2022/01/22 11:31:54;;;;;;;17.30;8.98;;;2.20;99.90;;;;;;5134554;28;20037;-84
2022/01/22 11:34:32;;;;;;;17.33;8.52;;;2.30;99.90;;;;;;5141167;28;20049;-84
2022/01/22 11:37:29;;;;;;;15.38;8.75;;;2.20;99.90;;;;;;5116245;28;20064;-84
2022/01/22 11:40:10;;;;;;;15.93;9.50;;;2.20;99.90;;;;;;5139655;28;20050;-83
2022/01/22 11:43:00;;;;;;;16.50;8.63;;;2.30;99.90;;;;;;5162821;28;20045;-85
2022/01/22 11:45:49;;;;;;;17.48;9.35;;;2.30;99.90;;;;;;5135395;28;20691;-84
2022/01/22 11:48:25;;;;;;;15.73;9.15;;;;;;;;;;5144886;28;20056;-84
2022/01/22 11:51:21;;;;;;;16.80;8.25;;;2.30;99.90;;;;;;5158985;28;20577;-85
2022/01/22 11:53:56;;;;;;;18.02;9.05;;;2.30;99.90;;;;;;5130204;28;20072;-85
2022/01/22 11:56:31;;;;;;;14.15;7.82;;;2.30;99.90;;;;;;5135547;28;20046;-84
2022/01/22 11:59:21;;;;;;;16.90;9.30;;;2.20;99.90;;;;;;5145993;28;20058;-83
2022/01/22 12:02:03;;;;;;;19.02;10.02;;;3.30;99.90;;;;;;5158110;28;20060;-84
2022/01/22 12:04:40;;;;;;;16.23;7.80;;;;;;;;;;5141465;28;20045;-84
2022/01/22 12:07:16;;;;;;;14.25;8.27;;;2.30;99.90;;;;;;5157326;28;20052;-83
2022/01/22 12:09:53;;;;;;;16.90;8.70;;;2.20;99.90;;;;;;5167489;28;20050;-83
2022/01/22 12:15:31;;;;;;;18.83;9.32;;;;;;;;;;5135941;28;21540;-83
2022/01/22 12:18:12;;;;;;;16.42;9.38;;;2.30;99.90;;;;;;5121018;28;20058;-82
2022/01/22 12:23:30;;;;;;;18.25;9.40;;;2.30;99.90;;;;;;5161923;28;20056;-82
2022/01/22 12:26:04;;;;;;;15.77;9.15;;;;;;;;;;5164458;28;20537;-85
2022/01/22 12:28:44;;;;;;;20.42;10.38;;;;;;;;;;5137011;28;20588;-85
2022/01/22 12:31:24;;;;;;;16.77;8.95;;;;;;;;;;5154216;28;20049;-84
2022/01/22 12:33:57;;;;;;;16.95;9.65;;;;;;;;;;5138573;28;20045;-83
2022/01/22 12:36:39;;;;;;;17.45;8.75;;;2.20;99.90;;;;;;5116939;28;20049;-84
2022/01/22 12:39:18;;;;;;;18.33;10.00;;;;;;;;;;5129301;28;21467;-84
2022/01/22 12:41:54;;;;;;;15.88;8.80;;;;;;;;;;5135831;28;20046;-84
2022/01/22 12:44:31;;;;;;;17.38;9.65;;;2.30;99.90;;;;;;5140525;28;20045;-85
2022/01/22 12:47:09;;;;;;;15.80;9.55;;;2.30;99.90;;;;;;5112865;28;20761;-84
2022/01/22 12:50:05;;;;;;;18.73;9.38;;;2.20;99.90;;;;;;5099279;28;20319;-83
2022/01/22 12:52:46;;;;;;;17.75;9.63;;;;;;;;;;5145130;28;20925;-84
2022/01/22 12:55:26;;;;;;;20.27;10.32;;;2.40;99.90;;;;;;5154403;28;20041;-84
2022/01/22 12:58:04;;;;;;;22.17;10.13;;;;;;;;;;5160974;28;20049;-83
2022/01/22 13:00:37;;;;;;;17.27;9.95;;;;;;;;;;5160672;28;20042;-85
2022/01/22 13:03:10;;;;;;;20.48;11.20;;;;;;;;;;5151509;28;20049;-83
2022/01/22 13:05:46;;;;;;;17.10;9.60;;;;;;;;;;5175191;28;20590;-83
2022/01/22 13:08:31;;;;;;;16.90;8.88;;;2.30;99.90;;;;;;5153866;28;20307;-83
2022/01/22 13:11:17;;;;;;;23.77;11.65;;;;;;;;;;5164443;28;20054;-84
2022/01/22 13:13:51;;;;;;;26.45;13.68;;;;;;;;;;5140183;28;20694;-85
2022/01/22 13:16:24;;;;;;;25.80;13.63;;;;;;;;;;5147202;28;20068;-85
2022/01/22 13:19:00;;;;;;;19.48;11.15;;;2.40;99.90;;;;;;5146417;28;20045;-85
2022/01/22 13:21:33;;;;;;;21.45;11.57;;;;;;;;;;5158849;28;20379;-83
2022/01/22 13:24:09;;;;;;;18.85;9.93;;;2.30;99.90;;;;;;5146261;28;21379;-84
2022/01/22 13:26:56;;;;;;;21.25;10.20;;;2.30;99.90;;;;;;5146249;28;20046;-86
2022/01/22 13:29:37;;;;;;;23.73;13.30;;;2.30;99.90;;;;;;5142144;28;20528;-84
2022/01/22 13:32:14;;;;;;;21.27;12.18;;;;;;;;;;5158629;28;20053;-84
2022/01/22 13:49:27;;;;;;;20.27;11.70;;;2.30;99.90;;;;;;5170696;28;20120;-85
2022/01/22 13:52:05;;;;;;;20.38;10.13;;;2.30;99.90;;;;;;5165491;28;20480;-85
2022/01/22 13:54:45;;;;;;;19.45;11.25;;;2.30;99.90;;;;;;5140515;28;20047;-85
2022/01/22 13:57:24;;;;;;;18.35;9.98;;;2.30;99.90;;;;;;5163448;28;20497;-84
2022/01/22 13:59:57;;;;;;;23.67;11.23;;;;;;;;;;5162770;28;20045;-86
2022/01/22 14:05:31;;;;;;;21.48;11.63;;;;;;;;;;5123737;28;20114;-84
2022/01/22 14:08:09;;;;;;;21.45;11.80;;;2.30;99.90;;;;;;5147342;28;20038;-84
2022/01/22 14:10:42;;;;;;;19.73;11.52;;;;;;;;;;5131617;28;20046;-84
2022/01/22 14:13:15;;;;;;;21.48;11.07;;;;;;;;;;5147508;28;20082;-84
2022/01/22 14:15:49;;;;;;;24.30;12.25;;;;;;;;;;5146345;28;20052;-84
2022/01/22 14:18:39;;;;;;;26.15;13.27;;;2.40;99.90;;;;;;5128149;28;20052;-85
2022/01/22 14:21:20;;;;;;;29.63;15.30;;;2.40;99.90;;;;;;5158146;28;20326;-84
2022/01/22 14:23:56;;;;;;;24.77;11.90;;;;;;;;;;5137551;28;20042;-85
2022/01/22 14:26:40;;;;;;;23.58;12.60;;;2.30;99.90;;;;;;5136977;28;20045;-84
2022/01/22 14:29:14;;;;;;;26.65;11.68;;;;;;;;;;5150558;28;20060;-84
2022/01/22 14:31:51;;;;;;;27.02;12.68;;;;;;;;;;5149277;28;20045;-83
2022/01/22 14:34:42;;;;;;;22.73;12.60;;;2.20;99.90;;;;;;5155511;28;20049;-84
2022/01/22 14:37:27;;;;;;;28.35;12.80;;;2.30;99.90;;;;;;5155347;28;20911;-84
2022/01/22 14:45:57;;;;;;;23.48;12.82;;;2.30;99.90;;;;;;5132583;28;20792;-83
2022/01/22 14:48:31;;;;;;;27.17;13.40;;;;;;;;;;5158940;28;20044;-84
2022/01/22 14:51:04;;;;;;;26.25;13.90;;;;;;;;;;5172601;28;20639;-84
2022/01/22 14:53:37;;;;;;;28.85;12.57;;;;;;;;;;5172442;28;20775;-83
2022/01/22 14:56:10;;;;;;;22.43;12.70;;;;;;;;;;5154001;28;20052;-84
2022/01/22 14:58:43;;;;;;;25.70;13.43;;;;;;;;;;5166452;28;20057;-84
2022/01/22 15:01:16;;;;;;;22.92;13.30;;;;;;;;;;5167164;28;20083;-84
2022/01/22 15:03:49;;;;;;;26.65;13.13;;;;;;;;;;5158201;28;20528;-84
2022/01/22 15:06:22;;;;;;;21.40;12.53;;;;;;;;;;5154928;28;20053;-84
2022/01/22 15:08:54;;;;;;;26.83;13.20;;;;;;;;;;5154293;28;20053;-83
2022/01/22 15:11:27;;;;;;;27.00;12.17;;;;;;;;;;5154562;28;20052;-84
2022/01/22 15:14:03;;;;;;;24.00;11.77;;;2.30;99.90;;;;;;5176375;28;20049;-85
2022/01/22 15:16:43;;;;;;;26.02;12.25;;;;;;;;;;5175506;28;20500;-84
2022/01/22 15:19:21;;;;;;;25.88;11.98;;;2.30;99.90;;;;;;5156060;28;20038;-84
2022/01/22 15:21:54;;;;;;;22.42;11.10;;;;;;;;;;5171257;28;20061;-83
2022/01/22 15:24:27;;;;;;;19.77;11.32;;;;;;;;;;5175149;28;20045;-84
2022/01/22 15:27:00;;;;;;;19.42;11.93;;;;;;;;;;5176488;28;20060;-84
2022/01/22 15:29:42;;;;;;;21.17;10.63;;;;;;;;;;5174704;28;20057;-83
2022/01/22 15:32:32;;;;;;;20.90;11.10;;;;;;;;;;5140986;28;20064;-83
2022/01/22 15:35:07;;;;;;;26.25;11.50;;;2.20;99.90;;;;;;5155686;28;20046;-83
2022/01/22 15:37:51;;;;;;;20.85;11.48;;;2.20;99.90;;;;;;5183616;28;20052;-82
2022/01/22 15:40:33;;;;;;;20.25;11.50;;;2.20;99.90;;;;;;5175008;28;20053;-82
2022/01/22 15:43:07;;;;;;;20.67;11.32;;;;;;;;;;5158619;28;20052;-83
2022/01/22 15:45:40;;;;;;;26.80;12.38;;;;;;;;;;5142624;28;20049;-83
2022/01/22 15:48:15;;;;;;;25.65;13.10;;;;;;;;;;5143601;28;20416;-84
2022/01/22 15:50:48;;;;;;;25.13;12.07;;;;;;;;;;5171619;28;20049;-83
2022/01/22 15:53:26;;;;;;;26.17;12.52;;;;;;;;;;5159909;28;20046;-83
2022/01/22 15:55:59;;;;;;;23.43;13.37;;;;;;;;;;5173449;28;20041;-84
2022/01/22 15:58:35;;;;;;;32.67;16.40;;;;;;;;;;5158964;28;20049;-84
2022/01/22 16:01:10;;;;;;;27.13;13.02;;;;;;;;;;5155703;28;20034;-83
2022/01/22 16:03:45;;;;;;;29.45;12.13;;;;;;;;;;5155426;28;20046;-84
2022/01/22 16:06:36;;;;;;;24.13;12.93;;;2.20;99.90;;;;;;5164629;28;20041;-84
2022/01/22 16:09:11;;;;;;;25.23;11.95;;;2.30;99.90;;;;;;5175944;28;20052;-84
2022/01/22 16:12:06;;;;;;;25.20;12.23;;;;;;;;;;5177738;28;20512;-83
2022/01/22 16:14:52;;;;;;;22.67;11.55;;;;;;;;;;5178969;28;20042;-83
2022/01/22 16:17:27;;;;;;;24.45;13.02;;;2.20;99.90;;;;;;5178514;28;20042;-84
2022/01/22 16:20:00;;;;;;;25.70;13.10;;;;;;;;;;5173693;28;20048;-84
2022/01/22 16:22:34;;;;;;;22.08;11.95;;;;;;;;;;5158959;28;20044;-83
2022/01/22 16:25:07;;;;;;;24.70;12.83;;;;;;;;;;5176218;28;20050;-84
2022/01/22 16:27:41;;;;;;;24.35;11.98;;;;;;;;;;5163067;28;20056;-85
2022/01/22 16:30:16;;;;;;;23.85;12.27;;;;;;;;;;5144675;28;20052;-84
2022/01/22 16:32:49;;;;;;;25.45;13.27;;;;;;;;;;5159950;28;20049;-83
2022/01/22 16:35:23;;;;;;;27.08;12.60;;;;;;;;;;5156615;28;20052;-84
2022/01/22 16:37:56;;;;;;;21.37;11.73;;;;;;;;;;5186009;28;20037;-83
2022/01/22 16:40:31;;;;;;;26.73;12.98;;;;;;;;;;5189178;28;20046;-84
2022/01/22 16:43:07;;;;;;;23.90;12.77;;;;;;;;;;5191814;28;20048;-84
2022/01/22 16:51:20;;;;;;;21.88;11.95;;;2.30;99.90;;;;;;5173875;28;20497;-84
2022/01/22 16:56:49;;;;;;;24.30;12.48;;;;;;;;;;5193168;28;20038;-84
2022/01/22 16:59:44;;;;;;;24.10;13.32;;;2.20;99.90;;;;;;5183430;28;21518;-86
2022/01/22 17:02:19;;;;;;;36.22;14.57;;;;;;;;;;5145686;28;20052;-84
2022/01/22 17:04:55;;;;;;;25.35;14.15;;;;;;;;;;5145493;28;20056;-85
2022/01/22 17:07:35;;;;;;;22.58;11.88;;;;;;;;;;5185414;28;20042;-85
2022/01/22 17:15:47;;;;;;;23.02;13.13;;;;;;;;;;5143700;28;20045;-87
2022/01/22 17:18:20;;;;;;;23.02;11.82;;;;;;;;;;5122283;28;20052;-86
2022/01/22 17:20:53;;;;;;;24.40;12.32;;;;;;;;;;5180989;28;20052;-86
2022/01/22 17:23:27;;;;;;;27.45;12.95;;;;;;;;;;5151998;28;20065;-86
2022/01/22 17:26:00;;;;;;;26.58;14.13;;;;;;;;;;5177816;28;20053;-86
2022/01/22 17:28:33;;;;;;;24.38;12.57;;;;;;;;;;5161197;28;20053;-86
2022/01/22 17:31:06;;;;;;;21.20;12.70;;;;;;;;;;5158408;28;20048;-86
2022/01/22 17:33:39;;;;;;;22.33;12.75;;;;;;;;;;5175307;28;20050;-87
2022/01/22 17:36:13;;;;;;;27.75;13.52;;;;;;;;;;5175360;28;20045;-87
2022/01/22 17:38:58;;;;;;;23.15;12.45;;;;;;;;;;5157177;28;20507;-86
2022/01/22 17:41:31;;;;;;;22.67;12.45;;;;;;;;;;5145226;28;20052;-86
2022/01/22 17:44:09;;;;;;;23.02;12.30;;;;;;;;;;5118797;28;20113;-87